logo
Search for airport 
image banner adimage banner adimage banner ad
image banner ad

YMLBG - Marlborough

Located in , Australia

ICAO - , IATA -

Data provided by Airmate  

General information

Coordinates: S42°9'47" E146°28'56"
Elevation is 2222 feet MSL.
Magnetic variation is 14° East
View others Airports in Tasmania

Operational data

Special qualification required
Current time UTC:
Current local time:
Weather at : - ( 0 km )
METAR: KTZR 131647Z 30013G20KT 10SM CLR 14/01 A3011
View NOTAMs / SUP AIP / TFR affecting this airport [VIEW]
Communications frequencies: [VIEW]

Runways:

RWY identifierQFULength (ft)Width (ft)SurfaceLDA (ft)
30315°182244GRAS
12135°182244GRAS

Airport contact information

Address: Australia

Other aviation service providers

Aviation club (not for profit)

Sydney Skydivers

Sydney Skydivers

Satellite view of YMLBG